Time;durP1;ratioP1;P1;durP2;ratioP2;P2;SDS_P1;SDS_P2;PMS_P1;PMS_P2;Temp;Humidity;BMP_temperature;BMP_pressure;BME280_temperature;BME280_humidity;BME280_pressure;Samples;Min_cycle;Max_cycle;Signal;HPM_P1;HPM_P2
2022/09/10 00:01:23;;;;;;;25.75;14.60;;;;;;;-145.67;100.00;66521.78;4947974;28;20031;-74
2022/09/10 00:03:49;;;;;;;28.50;16.02;;;;;;;-145.67;100.00;66521.78;4928045;28;20141;-75
2022/09/10 00:06:17;;;;;;;30.10;23.92;;;;;;;-145.67;100.00;66521.78;4945050;28;20035;-77
2022/09/10 00:08:43;;;;;;;23.27;17.50;;;;;;;-145.67;100.00;66521.78;4926644;28;20034;-76
2022/09/10 00:11:09;;;;;;;26.75;15.88;;;;;;;-145.67;100.00;66521.78;4943117;28;20074;-78
2022/09/10 00:13:39;;;;;;;27.38;16.95;;;;;;;-145.67;100.00;66521.78;4944230;28;20050;-77
2022/09/10 00:16:08;;;;;;;27.45;17.20;;;;;;;-145.67;100.00;66521.78;4947920;28;20045;-78
2022/09/10 00:18:34;;;;;;;30.15;11.25;;;;;;;-145.67;100.00;66521.78;4943582;28;20083;-75
2022/09/10 00:21:03;;;;;;;28.38;12.95;;;;;;;-145.67;100.00;66521.78;4910612;28;20660;-78
2022/09/10 00:23:29;;;;;;;27.00;14.75;;;;;;;-145.67;100.00;66521.78;4942652;28;20531;-78
2022/09/10 00:25:58;;;;;;;28.27;15.15;;;;;;;-145.67;100.00;66521.78;4930615;28;20045;-78
2022/09/10 00:28:26;;;;;;;26.58;16.30;;;;;;;-145.67;100.00;66521.78;4950161;28;20083;-76
2022/09/10 00:30:54;;;;;;;36.17;20.67;;;;;;;-145.67;100.00;66521.78;4950422;28;20047;-76
2022/09/10 00:33:21;;;;;;;43.80;31.45;;;;;;;-145.67;100.00;66521.78;4956842;28;20041;-76
2022/09/10 00:35:46;;;;;;;27.52;19.58;;;;;;;-145.67;100.00;66521.78;4956877;28;20031;-76
2022/09/10 00:38:13;;;;;;;38.58;28.90;;;;;;;-145.67;100.00;66521.78;4958435;28;20492;-76
2022/09/10 00:40:39;;;;;;;33.75;24.85;;;;;;;-145.67;100.00;66521.78;4947135;28;20039;-76
2022/09/10 00:43:14;;;;;;;45.25;27.45;;;;;;;-145.67;100.00;66521.78;4931268;28;22899;-76
2022/09/10 00:45:42;;;;;;;28.63;18.52;;;;;;;-145.67;100.00;66521.78;4936947;28;20030;-75
2022/09/10 00:48:20;;;;;;;36.22;28.88;;;;;;;-145.67;100.00;66521.78;4948447;28;20034;-74
2022/09/10 00:50:48;;;;;;;73.28;55.45;;;;;;;-145.67;100.00;66521.78;4953129;28;20484;-74
2022/09/10 00:53:16;;;;;;;52.95;35.95;;;;;;;-145.67;100.00;66521.78;4933850;28;20053;-74
2022/09/10 00:55:49;;;;;;;74.35;38.33;;;;;;;-145.67;100.00;66521.78;4913705;28;20390;-74
2022/09/10 00:58:17;;;;;;;90.28;38.95;;;;;;;-145.67;100.00;66521.78;4950455;28;20051;-72
2022/09/10 01:00:42;;;;;;;178.80;70.32;;;;;;;-145.67;100.00;66521.78;4945138;28;20496;-73
2022/09/10 01:03:11;;;;;;;111.50;54.95;;;;;;;-145.67;100.00;66521.78;4931685;28;20031;-72
2022/09/10 01:05:41;;;;;;;115.80;78.20;;;;;;;-145.67;100.00;66521.78;4929888;28;20527;-72
2022/09/10 01:08:11;;;;;;;99.88;71.80;;;;;;;-145.67;100.00;66521.78;4949527;28;20524;-72
2022/09/10 01:10:48;;;;;;;80.45;62.90;;;;;;;-145.67;100.00;66521.78;4943477;28;20051;-73
2022/09/10 01:13:36;;;;;;;109.70;87.88;;;;;;;-145.67;100.00;66521.78;4926816;28;20057;-71
2022/09/10 01:16:33;;;;;;;74.55;61.25;;;;;;;-145.67;100.00;66521.78;4947031;28;20043;-72
2022/09/10 01:19:12;;;;;;;57.88;39.33;;;;;;;-145.67;100.00;66521.78;4946058;28;20046;-72
2022/09/10 01:21:50;;;;;;;74.25;57.83;;;;;;;-145.67;100.00;66521.78;4945318;28;20534;-72
2022/09/10 01:24:28;;;;;;;86.95;66.75;;;;;;;-145.67;100.00;66521.78;4943233;28;20031;-71
2022/09/10 01:27:15;;;;;;;85.22;62.03;;;;;;;-145.67;100.00;66521.78;4942101;28;20042;-71
2022/09/10 01:30:02;;;;;;;80.85;64.20;;;;;;;-145.67;100.00;66521.78;4943066;28;20486;-71
2022/09/10 01:32:36;;;;;;;60.17;40.55;;;;;;;-145.67;100.00;66521.78;4906997;28;20043;-71
2022/09/10 01:35:16;;;;;;;54.80;36.17;;;;;;;-145.67;100.00;66521.78;4914587;28;20035;-71
2022/09/10 01:37:46;;;;;;;30.70;16.90;;;;;;;-145.67;100.00;66521.78;4943499;28;20037;-71
2022/09/10 01:40:12;;;;;;;30.70;10.27;;;;;;;-145.67;100.00;66521.78;4926911;28;20034;-71
2022/09/10 01:42:40;;;;;;;28.27;11.02;;;;;;;-145.67;100.00;66521.78;4943198;28;20149;-71
2022/09/10 01:45:08;;;;;;;33.13;12.63;;;;;;;-145.67;100.00;66521.78;4924461;28;20174;-70
2022/09/10 01:47:55;;;;;;;29.98;12.93;;;;;;;-145.67;100.00;66521.78;4926119;28;20607;-70
2022/09/10 01:50:24;;;;;;;30.77;11.43;;;;;;;-145.67;100.00;66521.78;4942533;28;20051;-70
2022/09/10 01:53:23;;;;;;;31.55;12.88;;;;;;;-145.67;100.00;66521.78;4927872;28;20066;-71
2022/09/10 01:56:01;;;;;;;35.08;13.65;;;;;;;-145.67;100.00;66521.78;4942548;28;20041;-71
2022/09/10 01:58:36;;;;;;;33.28;13.48;;;;;;;-145.67;100.00;66521.78;4944165;28;20027;-71
2022/09/10 02:01:27;;;;;;;27.27;11.77;;;;;;;-145.67;100.00;66521.78;4943719;28;20436;-72
2022/09/10 02:03:56;;;;;;;30.70;12.93;;;;;;;-145.67;100.00;66521.78;4941671;28;20122;-70
2022/09/10 02:06:26;;;;;;;37.25;15.10;;;;;;;-145.67;100.00;66521.78;4942636;28;20082;-72
2022/09/10 02:08:53;;;;;;;23.98;11.68;;;;;;;-145.67;100.00;66521.78;4943230;28;20045;-70
2022/09/10 02:11:18;;;;;;;29.45;13.93;;;;;;;-145.67;100.00;66521.78;4942855;28;20038;-70
2022/09/10 02:13:46;;;;;;;29.95;14.25;;;;;;;-145.67;100.00;66521.78;4924427;28;20035;-69
2022/09/10 02:16:15;;;;;;;36.72;15.10;;;;;;;-145.67;100.00;66521.78;4927559;28;20042;-70
2022/09/10 02:18:43;;;;;;;26.67;13.32;;;;;;;-145.67;100.00;66521.78;4929771;28;20031;-71
2022/09/10 02:21:10;;;;;;;30.63;13.90;;;;;;;-145.67;100.00;66521.78;4928825;28;20042;-70
2022/09/10 02:23:43;;;;;;;32.33;16.67;;;;;;;-145.67;100.00;66521.78;4925192;28;20035;-71
2022/09/10 02:26:13;;;;;;;41.17;16.55;;;;;;;-145.67;100.00;66521.78;4920975;28;20312;-70
2022/09/10 02:28:39;;;;;;;34.22;17.42;;;;;;;-145.67;100.00;66521.78;4941167;28;20078;-71
2022/09/10 02:31:07;;;;;;;42.25;19.73;;;;;;;-145.67;100.00;66521.78;4941712;28;20048;-70
2022/09/10 02:33:33;;;;;;;39.85;18.98;;;;;;;-145.67;100.00;66521.78;4924496;28;20035;-71
2022/09/10 02:35:58;;;;;;;44.17;21.73;;;;;;;-145.67;100.00;66521.78;4942219;28;20054;-69
2022/09/10 02:38:23;;;;;;;46.83;22.92;;;;;;;-145.67;100.00;66521.78;4943848;28;20121;-70
2022/09/10 02:40:52;;;;;;;49.28;23.42;;;;;;;-145.67;100.00;66521.78;4941898;28;20046;-70
2022/09/10 02:43:19;;;;;;;43.38;21.33;;;;;;;-145.67;100.00;66521.78;4940985;28;20039;-71
2022/09/10 02:45:45;;;;;;;49.55;24.48;;;;;;;-145.67;100.00;66521.78;4942435;28;20043;-70
2022/09/10 02:48:12;;;;;;;56.30;25.73;;;;;;;-145.67;100.00;66521.78;4942922;28;20035;-70
2022/09/10 02:50:38;;;;;;;46.83;25.27;;;;;;;-145.67;100.00;66521.78;4941807;28;20049;-70
2022/09/10 02:53:04;;;;;;;42.30;23.70;;;;;;;-145.67;100.00;66521.78;4941975;28;20143;-70
2022/09/10 02:55:30;;;;;;;42.28;23.48;;;;;;;-145.67;100.00;66521.78;4940760;28;20128;-70
2022/09/10 02:57:57;;;;;;;41.72;23.25;;;;;;;-145.67;100.00;66521.78;4928390;28;20089;-70
2022/09/10 03:00:24;;;;;;;45.50;25.30;;;;;;;-145.67;100.00;66521.78;4928738;28;20059;-70
2022/09/10 03:02:50;;;;;;;40.80;24.73;;;;;;;-145.67;100.00;66521.78;4946250;28;20031;-71
2022/09/10 03:05:16;;;;;;;42.38;25.88;;;;;;;-145.67;100.00;66521.78;4922276;28;20460;-71
2022/09/10 03:07:42;;;;;;;44.15;25.88;;;;;;;-145.67;100.00;66521.78;4945375;28;20031;-70
2022/09/10 03:10:08;;;;;;;48.83;29.58;;;;;;;-145.67;100.00;66521.78;4945104;28;20093;-70
2022/09/10 03:12:35;;;;;;;51.88;30.40;;;;;;;-145.67;100.00;66521.78;4940318;28;20274;-69
2022/09/10 03:15:03;;;;;;;57.28;31.73;;;;;;;-145.67;100.00;66521.78;4944136;28;20527;-69
2022/09/10 03:17:31;;;;;;;54.20;31.17;;;;;;;-145.67;100.00;66521.78;4946129;28;20035;-69
2022/09/10 03:19:57;;;;;;;66.03;32.42;;;;;;;-145.67;100.00;66521.78;4945485;28;20074;-70
2022/09/10 03:22:22;;;;;;;52.50;29.38;;;;;;;-145.67;100.00;66521.78;4927442;28;20039;-70
2022/09/10 03:24:50;;;;;;;48.03;27.52;;;;;;;-145.67;100.00;66521.78;4929788;28;20292;-70
2022/09/10 03:27:19;;;;;;;47.28;27.08;;;;;;;-145.67;100.00;66521.78;4945058;28;20027;-70
2022/09/10 03:29:44;;;;;;;44.72;27.00;;;;;;;-145.67;100.00;66521.78;4945116;28;20067;-70
2022/09/10 03:32:10;;;;;;;48.88;28.13;;;;;;;-145.67;100.00;66521.78;4944349;28;20110;-70
2022/09/10 03:34:35;;;;;;;48.17;27.55;;;;;;;-145.67;100.00;66521.78;4929680;28;20109;-69
2022/09/10 03:37:02;;;;;;;46.42;27.23;;;;;;;-145.67;100.00;66521.78;4944032;28;20412;-70
2022/09/10 03:39:30;;;;;;;54.13;28.20;;;;;;;-145.67;100.00;66521.78;4943750;28;20110;-71
2022/09/10 03:41:58;;;;;;;50.63;28.48;;;;;;;-145.67;100.00;66521.78;4924882;28;20081;-70
2022/09/10 03:44:23;;;;;;;54.08;27.77;;;;;;;-145.67;100.00;66521.78;4944571;28;20050;-71
2022/09/10 03:46:51;;;;;;;55.70;28.63;;;;;;;-145.67;100.00;66521.78;4929553;28;20035;-69
2022/09/10 03:49:21;;;;;;;46.85;27.50;;;;;;;-145.67;100.00;66521.78;4945472;28;21932;-69
2022/09/10 03:51:49;;;;;;;51.13;29.02;;;;;;;-145.67;100.00;66521.78;4909214;28;20058;-69
2022/09/10 03:54:15;;;;;;;47.90;27.90;;;;;;;-145.67;100.00;66521.78;4928255;28;20495;-70
2022/09/10 03:56:40;;;;;;;55.38;29.92;;;;;;;-145.67;100.00;66521.78;4929368;28;20141;-71
2022/09/10 03:59:08;;;;;;;49.85;28.40;;;;;;;-145.67;100.00;66521.78;4944357;28;20066;-69
2022/09/10 04:01:33;;;;;;;47.67;27.65;;;;;;;-145.67;100.00;66521.78;4927000;28;20035;-69
2022/09/10 04:03:58;;;;;;;50.70;28.88;;;;;;;-145.67;100.00;66521.78;4944777;28;21970;-69
2022/09/10 04:06:24;;;;;;;51.60;28.02;;;;;;;-145.67;100.00;66521.78;4944179;28;20247;-70
2022/09/10 04:08:53;;;;;;;52.25;30.00;;;;;;;-145.67;100.00;66521.78;4908158;28;20035;-70
2022/09/10 04:11:19;;;;;;;52.22;29.98;;;;;;;-145.67;100.00;66521.78;4944254;28;20055;-70
2022/09/10 04:13:47;;;;;;;55.78;30.25;;;;;;;-145.67;100.00;66521.78;4931370;28;20753;-69
2022/09/10 04:16:14;;;;;;;49.15;29.33;;;;;;;-145.67;100.00;66521.78;4923599;28;20035;-69
2022/09/10 04:18:40;;;;;;;54.33;29.50;;;;;;;-145.67;100.00;66521.78;4919469;28;20051;-69
2022/09/10 04:21:05;;;;;;;49.70;28.85;;;;;;;-145.67;100.00;66521.78;4942461;28;20073;-69
2022/09/10 04:23:32;;;;;;;51.58;28.65;;;;;;;-145.67;100.00;66521.78;4927853;28;20145;-69
2022/09/10 04:25:59;;;;;;;58.47;29.27;;;;;;;-145.67;100.00;66521.78;4944034;28;20060;-70
2022/09/10 04:28:25;;;;;;;50.25;28.67;;;;;;;-145.67;100.00;66521.78;4927583;28;20461;-71
2022/09/10 04:30:51;;;;;;;57.95;30.85;;;;;;;-145.67;100.00;66521.78;4943582;28;20429;-70
2022/09/10 04:33:16;;;;;;;60.50;30.90;;;;;;;-145.67;100.00;66521.78;4942609;28;20030;-70
2022/09/10 04:35:44;;;;;;;83.40;31.90;;;;;;;-145.67;100.00;66521.78;4942580;28;20035;-69
2022/09/10 04:38:10;;;;;;;56.10;30.63;;;;;;;-145.67;100.00;66521.78;4927358;28;20403;-70
2022/09/10 04:40:38;;;;;;;73.85;31.33;;;;;;;-145.67;100.00;66521.78;4928084;28;20046;-68
2022/09/10 04:43:04;;;;;;;61.75;30.77;;;;;;;-145.67;100.00;66521.78;4922736;28;20526;-69
2022/09/10 04:45:31;;;;;;;59.35;30.85;;;;;;;-145.67;100.00;66521.78;4927878;28;20058;-71
2022/09/10 04:47:58;;;;;;;61.63;32.40;;;;;;;-145.67;100.00;66521.78;4943228;28;20480;-69
2022/09/10 04:50:28;;;;;;;61.25;31.55;;;;;;;-145.67;100.00;66521.78;4928265;28;20520;-69
2022/09/10 04:52:53;;;;;;;62.45;30.20;;;;;;;-145.67;100.00;66521.78;4944255;28;20058;-69
2022/09/10 04:55:19;;;;;;;49.47;28.50;;;;;;;-145.67;100.00;66521.78;4943768;28;20037;-70
2022/09/10 04:57:44;;;;;;;63.38;33.03;;;;;;;-145.67;100.00;66521.78;4942912;28;20180;-69
2022/09/10 05:00:11;;;;;;;73.15;34.47;;;;;;;-145.67;100.00;66521.78;4943413;28;20038;-70
2022/09/10 05:02:36;;;;;;;76.25;36.17;;;;;;;-145.67;100.00;66521.78;4943049;28;20199;-68
2022/09/10 05:05:04;;;;;;;77.70;36.67;;;;;;;-145.67;100.00;66521.78;4942505;28;20046;-69
2022/09/10 05:07:30;;;;;;;80.63;36.85;;;;;;;-145.67;100.00;66521.78;4943326;28;20104;-69
2022/09/10 05:09:57;;;;;;;81.40;37.30;;;;;;;-145.67;100.00;66521.78;4943553;28;20133;-70
2022/09/10 05:12:23;;;;;;;80.13;35.53;;;;;;;-145.67;100.00;66521.78;4926688;28;20148;-70
2022/09/10 05:14:51;;;;;;;75.22;36.38;;;;;;;-145.67;100.00;66521.78;4943037;28;20030;-69
2022/09/10 05:17:17;;;;;;;79.15;36.15;;;;;;;-145.67;100.00;66521.78;4925734;28;20097;-69
2022/09/10 05:19:42;;;;;;;79.53;36.15;;;;;;;-145.67;100.00;66521.78;4943773;28;20282;-69
2022/09/10 05:22:08;;;;;;;80.13;36.17;;;;;;;-145.67;100.00;66521.78;4906338;28;20496;-70
2022/09/10 05:24:36;;;;;;;76.15;36.05;;;;;;;-145.67;100.00;66521.78;4942225;28;20870;-69
2022/09/10 05:27:01;;;;;;;76.13;34.58;;;;;;;-145.67;100.00;66521.78;4942176;28;20384;-69
2022/09/10 05:29:30;;;;;;;78.80;35.28;;;;;;;-145.67;100.00;66521.78;4937612;28;20063;-69
2022/09/10 05:31:57;;;;;;;77.90;34.53;;;;;;;-145.67;100.00;66521.78;4942821;28;20027;-68
2022/09/10 05:34:23;;;;;;;68.75;32.90;;;;;;;-145.67;100.00;66521.78;4943431;28;20077;-69
2022/09/10 05:36:51;;;;;;;66.43;31.27;;;;;;;-145.67;100.00;66521.78;4941754;28;20035;-69
2022/09/10 05:39:16;;;;;;;69.97;31.17;;;;;;;-145.67;100.00;66521.78;4942477;28;20439;-69
2022/09/10 05:41:42;;;;;;;59.92;29.77;;;;;;;-145.67;100.00;66521.78;4931671;28;20046;-69
2022/09/10 05:44:07;;;;;;;69.68;31.90;;;;;;;-145.67;100.00;66521.78;4913976;28;20026;-69
2022/09/10 05:46:33;;;;;;;76.03;35.13;;;;;;;-145.67;100.00;66521.78;4941436;28;20063;-70
2022/09/10 05:49:01;;;;;;;71.95;34.25;;;;;;;-145.67;100.00;66521.78;4942572;28;20507;-70
2022/09/10 05:51:28;;;;;;;77.18;36.40;;;;;;;-145.67;100.00;66521.78;4941752;28;20157;-70
2022/09/10 05:53:54;;;;;;;73.97;35.28;;;;;;;-145.67;100.00;66521.78;4942577;28;20339;-69
2022/09/10 05:56:19;;;;;;;85.90;38.03;;;;;;;-145.67;100.00;66521.78;4923880;28;20441;-69
2022/09/10 05:58:45;;;;;;;74.07;36.65;;;;;;;-145.67;100.00;66521.78;4941683;28;20488;-70
2022/09/10 06:01:13;;;;;;;75.35;38.28;;;;;;;-145.67;100.00;66521.78;4942628;28;20031;-70
2022/09/10 06:03:41;;;;;;;66.90;35.88;;;;;;;-145.67;100.00;66521.78;4941884;28;20408;-70
2022/09/10 06:06:09;;;;;;;114.65;39.35;;;;;;;-145.67;100.00;66521.78;4942880;28;20326;-70
2022/09/10 06:08:35;;;;;;;68.88;35.00;;;;;;;-145.67;100.00;66521.78;4925693;28;20542;-70
2022/09/10 06:11:04;;;;;;;73.75;37.08;;;;;;;-145.67;100.00;66521.78;4941796;28;20116;-69
2022/09/10 06:13:31;;;;;;;80.05;36.17;;;;;;;-145.67;100.00;66521.78;4920585;28;20377;-69
2022/09/10 06:15:57;;;;;;;73.15;35.42;;;;;;;-145.67;100.00;66521.78;4925578;28;20035;-69
2022/09/10 06:18:25;;;;;;;72.05;34.88;;;;;;;-145.67;100.00;66521.78;4941696;28;20039;-69
2022/09/10 06:21:03;;;;;;;74.60;34.72;;;;;;;-145.67;100.00;66521.78;4942258;28;20087;-67
2022/09/10 06:23:30;;;;;;;69.60;34.42;;;;;;;-145.67;100.00;66521.78;4904888;28;20046;-68
2022/09/10 06:26:03;;;;;;;67.35;33.60;;;;;;;-145.67;100.00;66521.78;4920819;28;20039;-68
2022/09/10 06:28:30;;;;;;;64.65;33.00;;;;;;;-145.67;100.00;66521.78;4941384;28;20129;-68
2022/09/10 06:30:55;;;;;;;65.05;34.65;;;;;;;-145.67;100.00;66521.78;4943339;28;20695;-69
2022/09/10 06:33:20;;;;;;;77.43;33.85;;;;;;;-145.67;100.00;66521.78;4942350;28;20023;-69
2022/09/10 06:35:53;;;;;;;61.95;32.78;;;;;;;-145.67;100.00;66521.78;4905270;28;20035;-69
2022/09/10 06:38:18;;;;;;;68.10;32.95;;;;;;;-145.67;100.00;66521.78;4925330;28;20152;-69
2022/09/10 06:40:54;;;;;;;59.03;32.50;;;;;;;-145.67;100.00;66521.78;4943551;28;20042;-69
2022/09/10 06:43:23;;;;;;;69.63;34.00;;;;;;;-145.67;100.00;66521.78;4943579;28;20045;-69
2022/09/10 06:45:55;;;;;;;65.20;32.58;;;;;;;-145.67;100.00;66521.78;4945914;28;23012;-69
2022/09/10 06:48:21;;;;;;;54.92;30.92;;;;;;;-145.67;100.00;66521.78;4928780;28;20224;-69
2022/09/10 06:50:55;;;;;;;65.95;32.33;;;;;;;-145.67;100.00;66521.78;4927765;28;20047;-68
2022/09/10 06:53:21;;;;;;;57.97;31.65;;;;;;;-145.67;100.00;66521.78;4896921;28;20027;-68
2022/09/10 06:55:50;;;;;;;59.00;31.52;;;;;;;-145.67;100.00;66521.78;4945837;28;20158;-69
2022/09/10 06:58:23;;;;;;;58.30;30.80;;;;;;;-145.67;100.00;66521.78;4944440;28;20591;-67
2022/09/10 07:00:50;;;;;;;57.45;30.50;;;;;;;-145.67;100.00;66521.78;4925108;28;20496;-68
2022/09/10 07:03:20;;;;;;;55.42;30.90;;;;;;;-145.67;100.00;66521.78;4944594;28;20034;-67
2022/09/10 07:05:46;;;;;;;56.78;30.70;;;;;;;-145.67;100.00;66521.78;4946023;28;20042;-68
2022/09/10 07:08:13;;;;;;;51.97;30.30;;;;;;;-145.67;100.00;66521.78;4945010;28;20030;-69
2022/09/10 07:10:39;;;;;;;54.67;30.30;;;;;;;-145.67;100.00;66521.78;4944308;28;20116;-68
2022/09/10 07:13:05;;;;;;;54.30;29.55;;;;;;;-145.67;100.00;66521.78;4924406;28;20039;-68
2022/09/10 07:15:33;;;;;;;59.53;30.00;;;;;;;-145.67;100.00;66521.78;4945473;28;20089;-68
2022/09/10 07:17:59;;;;;;;56.72;32.50;;;;;;;-145.67;100.00;66521.78;4944566;28;20164;-68
2022/09/10 07:20:28;;;;;;;54.13;28.92;;;;;;;-145.67;100.00;66521.78;4944075;28;20043;-68
2022/09/10 07:22:57;;;;;;;55.85;29.83;;;;;;;-145.67;100.00;66521.78;4944193;28;20121;-69
2022/09/10 07:25:24;;;;;;;55.67;28.58;;;;;;;-145.67;100.00;66521.78;4945318;28;20039;-66
2022/09/10 07:27:49;;;;;;;50.65;28.73;;;;;;;-145.67;100.00;66521.78;4944830;28;20039;-68
2022/09/10 07:30:15;;;;;;;46.33;27.90;;;;;;;-145.67;100.00;66521.78;4945290;28;20601;-68
2022/09/10 07:32:41;;;;;;;44.53;29.10;;;;;;;-145.67;100.00;66521.78;4918834;28;20039;-67
2022/09/10 07:35:09;;;;;;;37.58;25.88;;;;;;;-145.67;100.00;66521.78;4944747;28;20471;-67
2022/09/10 07:37:34;;;;;;;39.72;26.73;;;;;;;-145.67;100.00;66521.78;4944707;28;20109;-67
2022/09/10 07:40:00;;;;;;;33.47;24.23;;;;;;;-145.67;100.00;66521.78;4944285;28;20031;-67
2022/09/10 07:42:25;;;;;;;31.70;22.83;;;;;;;-145.67;100.00;66521.78;4920774;28;20100;-68
2022/09/10 07:44:51;;;;;;;27.88;21.13;;;;;;;-145.67;100.00;66521.78;4944719;28;20035;-69
2022/09/10 07:47:19;;;;;;;26.45;19.80;;;;;;;-145.67;100.00;66521.78;4944723;28;20041;-67
2022/09/10 07:49:45;;;;;;;23.98;18.98;;;;;;;-145.67;100.00;66521.78;4923342;28;20097;-67
2022/09/10 07:52:11;;;;;;;22.30;18.30;;;;;;;-145.67;100.00;66521.78;4944651;28;20049;-67
2022/09/10 07:54:38;;;;;;;22.27;18.30;;;;;;;-145.67;100.00;66521.78;4943951;28;20031;-67
2022/09/10 07:57:04;;;;;;;24.52;19.05;;;;;;;-145.67;100.00;66521.78;4944213;28;20134;-66
2022/09/10 07:59:30;;;;;;;25.17;20.30;;;;;;;-145.67;100.00;66521.78;4921889;28;20508;-67
2022/09/10 08:01:58;;;;;;;20.52;17.75;;;;;;;-145.67;100.00;66521.78;4922977;28;20034;-67
2022/09/10 08:04:30;;;;;;;19.37;16.73;;;;;;;-145.67;100.00;66521.78;4944991;28;20082;-66
2022/09/10 08:06:58;;;;;;;18.77;15.82;;;;;;;-145.67;100.00;66521.78;4912253;28;20617;-65
2022/09/10 08:09:24;;;;;;;14.52;12.90;;;;;;;-145.67;100.00;66521.78;4927860;28;21943;-66
2022/09/10 08:11:50;;;;;;;13.85;11.90;;;;;;;-145.67;100.00;66521.78;4926554;28;20449;-67
2022/09/10 08:14:18;;;;;;;15.00;11.88;;;;;;;-145.67;100.00;66521.78;4935569;28;20035;-67
2022/09/10 08:16:43;;;;;;;13.73;11.15;;;;;;;-145.67;100.00;66521.78;4922809;28;22255;-66
2022/09/10 08:19:09;;;;;;;14.95;11.13;;;;;;;-145.67;100.00;66521.78;4943832;28;20042;-66
2022/09/10 08:21:35;;;;;;;11.73;10.07;;;;;;;-145.67;100.00;66521.78;4907762;28;20042;-66
2022/09/10 08:24:04;;;;;;;13.25;10.25;;;;;;;-145.67;100.00;66521.78;4943880;28;20035;-66
2022/09/10 08:26:32;;;;;;;10.65;7.90;;;;;;;-145.67;100.00;66521.78;4943096;28;20166;-66
2022/09/10 08:28:57;;;;;;;11.60;7.60;;;;;;;-145.67;100.00;66521.78;4943288;28;20476;-66
2022/09/10 08:31:25;;;;;;;8.75;6.28;;;;;;;-145.67;100.00;66521.78;4938081;28;20050;-66
2022/09/10 08:33:52;;;;;;;8.25;4.90;;;;;;;-145.67;100.00;66521.78;4944106;28;20116;-67
2022/09/10 08:36:20;;;;;;;7.78;5.38;;;;;;;-145.67;100.00;66521.78;4921671;28;20117;-67
2022/09/10 08:38:49;;;;;;;9.73;6.60;;;;;;;-145.67;100.00;66521.78;4943264;28;20035;-67
2022/09/10 08:41:27;;;;;;;10.50;7.05;;;;;;;-145.67;100.00;66521.78;4926734;28;20038;-66
2022/09/10 08:43:56;;;;;;;9.43;6.50;;;;;;;-145.67;100.00;66521.78;4920283;28;20042;-67
2022/09/10 08:46:24;;;;;;;10.50;7.10;;;;;;;-145.67;100.00;66521.78;4942694;28;20219;-66
2022/09/10 08:49:06;;;;;;;9.75;6.75;;;;;;;-145.67;100.00;66521.78;4943072;28;20122;-67
2022/09/10 08:51:40;;;;;;;9.07;6.15;;;;;;;-145.67;100.00;66521.78;4943499;28;20043;-67
2022/09/10 08:54:13;;;;;;;10.68;6.60;;;;;;;-145.67;100.00;66521.78;4941695;28;20436;-67
2022/09/10 08:56:42;;;;;;;11.07;7.15;;;;;;;-145.67;100.00;66521.78;4924391;28;20209;-68
2022/09/10 08:59:20;;;;;;;11.10;7.60;;;;;;;-145.67;100.00;66521.78;4942313;28;21973;-67
2022/09/10 09:02:08;;;;;;;12.20;8.30;;;;;;;-145.67;100.00;66521.78;4926402;28;20038;-67
2022/09/10 09:04:42;;;;;;;12.27;8.85;;;;;;;-145.67;100.00;66521.78;4942374;28;20034;-67
2022/09/10 09:07:15;;;;;;;10.43;7.65;;;;;;;-145.67;100.00;66521.78;4943414;28;20086;-67
2022/09/10 09:09:43;;;;;;;10.60;6.78;;;;;;;-145.67;100.00;66521.78;4942577;28;20146;-66
2022/09/10 09:12:34;;;;;;;7.53;5.72;;;;;;;-145.67;100.00;66521.78;4942024;28;20046;-67
2022/09/10 09:15:11;;;;;;;8.52;6.30;;;;;;;-145.67;100.00;66521.78;4921691;28;20160;-67
2022/09/10 09:18:02;;;;;;;13.20;6.80;;;;;;;-145.67;100.00;66521.78;4943072;28;20042;-66
2022/09/10 09:20:41;;;;;;;12.45;6.80;;;;;;;-145.67;100.00;66521.78;4921201;28;20047;-67
2022/09/10 09:23:25;;;;;;;9.30;6.25;;;;;;;-145.67;100.00;66521.78;4942224;28;20093;-68
2022/09/10 09:26:02;;;;;;;9.45;6.53;;;;;;;-145.67;100.00;66521.78;4942895;28;20039;-67
2022/09/10 09:29:09;;;;;;;11.77;7.25;;;;;;;-145.67;100.00;66521.78;4941288;28;20122;-67
2022/09/10 09:31:41;;;;;;;8.23;6.88;;;;;;;-145.67;100.00;66521.78;4863911;29;20056;-67
2022/09/10 09:34:20;;;;;;;12.23;8.18;;;;;;;-145.67;100.00;66521.78;4844317;29;20144;-66
2022/09/10 09:36:49;;;;;;;18.65;8.60;;;;;;;-145.67;100.00;66521.78;4910136;28;20419;-68
2022/09/10 09:39:42;;;;;;;10.38;7.45;;;;;;;-145.67;100.00;66521.78;4926524;28;20039;-67
2022/09/10 09:42:17;;;;;;;10.35;6.47;;;;;;;-145.67;100.00;66521.78;4941813;28;20463;-66
2022/09/10 09:44:50;;;;;;;8.63;5.93;;;;;;;-145.67;100.00;66521.78;4923800;28;20595;-67
2022/09/10 09:47:18;;;;;;;7.10;5.38;;;;;;;-145.67;100.00;66521.78;4925258;28;20038;-67
2022/09/10 09:49:46;;;;;;;8.57;5.68;;;;;;;-145.67;100.00;66521.78;4926193;28;20254;-67
2022/09/10 09:52:18;;;;;;;7.30;5.90;;;;;;;-145.67;100.00;66521.78;4941780;28;20038;-67
2022/09/10 09:54:48;;;;;;;8.68;6.00;;;;;;;-145.67;100.00;66521.78;4941005;28;20042;-66
2022/09/10 09:57:19;;;;;;;11.07;6.30;;;;;;;-145.67;100.00;66521.78;4925159;28;20065;-66
2022/09/10 09:59:45;;;;;;;13.02;6.63;;;;;;;-145.67;100.00;66521.78;4940919;28;20039;-66
2022/09/10 10:02:13;;;;;;;11.40;7.50;;;;;;;-145.67;100.00;66521.78;4943262;28;20142;-66
2022/09/10 10:04:40;;;;;;;9.07;6.82;;;;;;;-145.67;100.00;66521.78;4942083;28;20111;-66
2022/09/10 10:07:06;;;;;;;12.32;7.43;;;;;;;-145.67;100.00;66521.78;4923778;28;20038;-68
2022/09/10 10:09:34;;;;;;;12.30;6.55;;;;;;;-145.67;100.00;66521.78;4942639;28;20047;-66
2022/09/10 10:12:04;;;;;;;8.05;5.55;;;;;;;-145.67;100.00;66521.78;4920685;28;20598;-66
2022/09/10 10:14:29;;;;;;;7.93;5.80;;;;;;;-145.67;100.00;66521.78;4943004;28;20042;-66
2022/09/10 10:16:59;;;;;;;10.23;5.22;;;;;;;-145.67;100.00;66521.78;4946870;28;20339;-65
2022/09/10 10:19:32;;;;;;;10.85;5.97;;;;;;;-145.67;100.00;66521.78;4930514;28;20054;-68
2022/09/10 10:22:15;;;;;;;7.22;5.22;;;;;;;-145.67;100.00;66521.78;4930492;28;20123;-66
2022/09/10 10:24:41;;;;;;;8.40;5.10;;;;;;;-145.67;100.00;66521.78;4945598;28;20097;-66
2022/09/10 10:27:16;;;;;;;8.50;5.05;;;;;;;-145.67;100.00;66521.78;4909637;28;20039;-66
2022/09/10 10:29:50;;;;;;;7.60;5.70;;;;;;;-145.67;100.00;66521.78;4909698;28;20374;-66
2022/09/10 10:32:18;;;;;;;6.43;5.15;;;;;;;-145.67;100.00;66521.78;4925980;28;20253;-66
2022/09/10 10:35:06;;;;;;;11.35;5.72;;;;;;;-145.67;100.00;66521.78;4929282;28;20428;-67
2022/09/10 10:37:55;;;;;;;6.93;5.95;;;;;;;-145.67;100.00;66521.78;4945648;28;20035;-68
2022/09/10 10:40:29;;;;;;;9.52;6.03;;;;;;;-145.67;100.00;66521.78;4945273;28;20035;-67
2022/09/10 10:43:18;;;;;;;7.18;5.55;;;;;;;-145.67;100.00;66521.78;4907864;28;20041;-66
2022/09/10 10:46:02;;;;;;;7.60;4.72;;;;;;;-145.67;100.00;66521.78;4944383;28;20483;-66
2022/09/10 10:48:55;;;;;;;8.27;4.35;;;;;;;-145.67;100.00;66521.78;4926034;28;20117;-67
2022/09/10 10:51:42;;;;;;;8.30;4.40;;;;;;;-145.67;100.00;66521.78;4946001;28;20047;-67
2022/09/10 10:54:33;;;;;;;9.30;4.45;;;;;;;-145.67;100.00;66521.78;4938592;28;20066;-66
2022/09/10 10:57:01;;;;;;;7.50;4.88;;;;;;;-145.67;100.00;66521.78;4923966;28;20790;-67
2022/09/10 10:59:45;;;;;;;9.80;4.65;;;;;;;-145.67;100.00;66521.78;4944154;28;20496;-67
2022/09/10 11:02:18;;;;;;;9.65;4.55;;;;;;;-145.67;100.00;66521.78;4945014;28;20058;-67
2022/09/10 11:04:52;;;;;;;7.43;3.10;;;;;;;-145.67;100.00;66521.78;4929521;28;20022;-67
2022/09/10 11:07:25;;;;;;;8.02;3.20;;;;;;;-145.67;100.00;66521.78;4943695;28;20173;-67
2022/09/10 11:10:01;;;;;;;5.68;3.10;;;;;;;-145.67;100.00;66521.78;4943805;28;20569;-66